createdAt,value
2022-09-04T00:05:04.046Z,2.83
2022-09-04T00:10:12.738Z,3.13
2022-09-04T00:15:20.398Z,2.35
2022-09-04T00:20:32.090Z,3.95
2022-09-04T00:25:36.424Z,2.40
2022-09-04T00:30:43.728Z,2.85
2022-09-04T00:35:49.746Z,3.55
2022-09-04T00:40:57.830Z,2.85
2022-09-04T00:46:14.046Z,2.97
2022-09-04T00:51:18.144Z,2.70
2022-09-04T00:56:36.178Z,4.40
2022-09-04T01:01:40.782Z,2.35
2022-09-04T01:06:48.467Z,3.92
2022-09-04T01:11:57.907Z,3.90
2022-09-04T01:17:06.898Z,3.15
2022-09-04T01:22:16.262Z,3.17
2022-09-04T01:27:22.473Z,4.82
2022-09-04T01:32:30.907Z,2.95
2022-09-04T01:37:42.726Z,3.50
2022-09-04T01:42:49.039Z,3.05
2022-09-04T01:47:52.766Z,4.18
2022-09-04T01:52:59.043Z,2.80
2022-09-04T01:58:09.793Z,4.68
2022-09-04T02:03:15.014Z,2.58
2022-09-04T02:08:31.094Z,3.30
2022-09-04T02:13:43.666Z,3.10
2022-09-04T02:18:51.173Z,3.30
2022-09-04T02:23:56.973Z,4.53
2022-09-04T02:29:04.006Z,2.88
2022-09-04T02:34:09.474Z,3.45
2022-09-04T02:39:18.439Z,5.93
2022-09-04T02:44:33.866Z,3.20
2022-09-04T02:49:41.160Z,3.58
2022-09-04T02:54:49.222Z,3.53
2022-09-04T02:59:59.728Z,4.93
2022-09-04T03:05:04.997Z,3.10
2022-09-04T03:10:10.881Z,3.80
2022-09-04T03:15:19.658Z,4.72
2022-09-04T03:20:23.082Z,3.33
2022-09-04T03:25:43.637Z,4.13
2022-09-04T03:30:47.949Z,3.80
2022-09-04T03:35:55.031Z,3.90
2022-09-04T03:41:00.461Z,3.80
2022-09-04T03:46:10.378Z,4.45
2022-09-04T03:51:16.911Z,5.68
2022-09-04T03:56:34.690Z,4.53
2022-09-04T04:01:48.299Z,4.63
2022-09-04T04:06:53.589Z,4.70
2022-09-04T04:12:05.017Z,5.25
2022-09-04T04:17:20.373Z,4.05
2022-09-04T04:22:30.953Z,4.40
2022-09-04T04:27:40.629Z,4.95
2022-09-04T04:32:51.159Z,5.43
2022-09-04T04:38:00.613Z,5.05
2022-09-04T04:43:08.072Z,5.20
2022-09-04T04:48:29.168Z,6.05
2022-09-04T04:53:37.621Z,5.40
2022-09-04T04:58:45.001Z,5.35
2022-09-04T05:03:55.829Z,5.55
2022-09-04T05:09:06.305Z,6.03
2022-09-04T05:14:18.366Z,5.63
2022-09-04T05:19:24.559Z,5.95
2022-09-04T05:24:33.108Z,6.88
2022-09-04T05:29:40.581Z,6.03
2022-09-04T05:34:53.318Z,5.18
2022-09-04T05:40:03.106Z,7.10
2022-09-04T05:45:12.713Z,5.53
2022-09-04T05:50:22.845Z,5.22
2022-09-04T05:55:33.038Z,5.15
2022-09-04T06:00:42.331Z,5.22
2022-09-04T06:05:47.394Z,5.93
2022-09-04T06:10:57.417Z,5.35
2022-09-04T06:16:09.960Z,5.38
2022-09-04T06:21:31.177Z,5.35
2022-09-04T06:26:42.000Z,5.05
2022-09-04T06:32:08.277Z,8.15
2022-09-04T06:37:17.805Z,5.13
2022-09-04T06:42:29.345Z,5.13
2022-09-04T06:47:36.761Z,5.18
2022-09-04T06:52:42.551Z,5.75
2022-09-04T06:58:06.361Z,6.22
2022-09-04T07:03:20.799Z,5.78
2022-09-04T07:08:29.429Z,5.72
2022-09-04T07:13:42.852Z,6.28
2022-09-04T07:19:03.946Z,6.10
2022-09-04T07:24:09.834Z,7.53
2022-09-04T07:29:26.008Z,6.05
2022-09-04T07:34:32.405Z,8.95
2022-09-04T07:39:38.567Z,7.90
2022-09-04T07:44:44.943Z,6.95
2022-09-04T07:49:53.742Z,7.03
2022-09-04T07:55:04.366Z,8.15
2022-09-04T08:00:09.898Z,7.72
2022-09-04T08:05:19.721Z,7.43
2022-09-04T08:10:25.897Z,12.73
2022-09-04T08:15:35.471Z,5.75
2022-09-04T08:20:46.382Z,6.38
2022-09-04T08:25:55.774Z,7.45
2022-09-04T08:31:07.661Z,7.50
2022-09-04T08:36:17.390Z,6.75
2022-09-04T08:41:38.467Z,7.75
2022-09-04T08:46:55.767Z,7.70
2022-09-04T08:52:18.355Z,6.70
2022-09-04T08:57:33.640Z,7.07
2022-09-04T09:02:54.205Z,9.00
2022-09-04T09:08:11.473Z,7.78
2022-09-04T09:13:37.104Z,7.60
2022-09-04T09:18:50.046Z,6.68
2022-09-04T09:24:13.398Z,7.55
2022-09-04T09:29:21.946Z,8.85
2022-09-04T09:34:51.014Z,5.93
2022-09-04T09:40:20.519Z,8.27
2022-09-04T09:45:49.828Z,6.50
2022-09-04T09:51:13.542Z,5.15
2022-09-04T09:56:30.798Z,7.25
2022-09-04T10:01:42.525Z,5.50
2022-09-04T10:07:03.414Z,9.18
2022-09-04T10:12:23.698Z,8.18
2022-09-04T10:17:42.081Z,7.18
2022-09-04T10:22:57.443Z,5.57
2022-09-04T10:28:10.288Z,6.05
2022-09-04T10:33:19.047Z,6.72
2022-09-04T10:38:34.779Z,6.97
2022-09-04T10:43:44.920Z,7.20
2022-09-04T10:48:58.098Z,5.25
2022-09-04T10:54:16.833Z,5.93
2022-09-04T10:59:37.092Z,5.05
2022-09-04T11:05:00.786Z,6.80
2022-09-04T11:10:19.133Z,5.43
2022-09-04T11:15:35.463Z,5.80
2022-09-04T11:20:59.634Z,6.90
2022-09-04T11:26:13.906Z,5.78
2022-09-04T11:31:24.726Z,7.40
2022-09-04T11:36:44.057Z,6.43
2022-09-04T11:42:20.339Z,5.97
2022-09-04T11:47:31.486Z,7.35
2022-09-04T11:52:46.797Z,6.63
2022-09-04T11:57:57.265Z,5.45
2022-09-04T12:03:19.839Z,7.45
2022-09-04T12:08:32.545Z,4.05
2022-09-04T12:13:44.010Z,4.03
2022-09-04T12:19:13.506Z,5.15
2022-09-04T12:24:31.997Z,3.80
2022-09-04T12:29:54.057Z,3.90
2022-09-04T12:35:06.633Z,4.30
2022-09-04T12:40:14.400Z,3.60
2022-09-04T12:45:21.967Z,3.53
2022-09-04T12:50:28.018Z,2.67
2022-09-04T12:55:33.556Z,2.58
2022-09-04T13:00:48.552Z,3.45
2022-09-04T13:06:04.062Z,3.42
2022-09-04T13:11:14.499Z,3.20
2022-09-04T13:16:23.087Z,3.53
2022-09-04T13:21:32.094Z,3.65
2022-09-04T13:26:46.098Z,3.50
2022-09-04T13:31:57.012Z,3.97
2022-09-04T13:37:04.225Z,5.80
2022-09-04T13:42:17.403Z,4.00
2022-09-04T13:47:32.454Z,3.42
2022-09-04T13:52:37.270Z,3.55
2022-09-04T13:57:42.614Z,3.97
2022-09-04T14:02:47.306Z,4.60
2022-09-04T14:07:51.514Z,3.15
2022-09-04T14:13:03.667Z,6.18
2022-09-04T14:23:12.058Z,2.40
2022-09-04T14:28:20.329Z,2.90
2022-09-04T14:33:34.658Z,2.53
2022-09-04T14:38:49.761Z,3.20
2022-09-04T14:44:06.545Z,3.42
2022-09-04T14:49:11.254Z,2.42
2022-09-04T14:54:17.871Z,2.53
2022-09-04T14:59:22.997Z,2.10
2022-09-04T15:04:26.253Z,1.90
2022-09-04T15:09:31.842Z,2.50
2022-09-04T15:14:39.252Z,2.33
2022-09-04T15:19:46.501Z,2.15
2022-09-04T15:24:53.339Z,5.25
2022-09-04T15:29:59.538Z,3.47
2022-09-04T15:35:16.841Z,3.38
2022-09-04T15:40:31.102Z,1.92
2022-09-04T15:45:37.154Z,2.38
2022-09-04T15:50:46.188Z,2.28
2022-09-04T15:55:51.028Z,2.58
2022-09-04T16:01:09.666Z,2.85
2022-09-04T16:06:19.319Z,2.33
2022-09-04T16:11:25.984Z,1.98
2022-09-04T16:16:31.123Z,2.80
2022-09-04T16:21:41.207Z,3.03
2022-09-04T16:26:46.619Z,4.50
2022-09-04T16:31:52.634Z,2.08
2022-09-04T16:37:01.913Z,2.10
2022-09-04T16:42:11.918Z,4.80
2022-09-04T16:47:17.726Z,2.47
2022-09-04T16:52:31.925Z,4.45
2022-09-04T16:57:41.241Z,2.95
2022-09-04T17:02:44.790Z,2.40
2022-09-04T17:07:50.318Z,2.85
2022-09-04T17:12:57.189Z,3.25
2022-09-04T17:18:01.135Z,2.58
2022-09-04T17:29:02.631Z,4.35
2022-09-04T17:29:10.934Z,5.30
2022-09-04T17:39:35.767Z,3.47
2022-09-04T17:40:35.547Z,2.60
2022-09-04T17:45:01.634Z,3.03
2022-09-04T17:50:09.611Z,4.63
2022-09-04T17:55:13.790Z,4.88
2022-09-04T18:00:20.543Z,5.97
2022-09-04T18:05:24.976Z,6.45
2022-09-04T18:10:32.471Z,5.55
2022-09-04T18:15:39.096Z,4.90
2022-09-04T18:20:45.906Z,3.00
2022-09-04T18:25:56.217Z,4.22
2022-09-04T18:37:07.403Z,3.05
2022-09-04T18:37:24.739Z,3.58
2022-09-04T18:49:25.141Z,4.80
2022-09-04T18:50:35.452Z,8.20
2022-09-04T18:52:50.278Z,4.22
2022-09-04T18:57:54.398Z,3.78
2022-09-04T19:03:11.383Z,4.50
2022-09-04T19:08:15.896Z,4.63
2022-09-04T19:13:26.128Z,5.53
2022-09-04T19:18:41.732Z,5.68
2022-09-04T19:23:48.497Z,5.13
2022-09-04T19:28:54.715Z,4.47
2022-09-04T19:34:02.011Z,4.82
2022-09-04T19:43:51.308Z,7.07
2022-09-04T19:46:16.093Z,7.90
2022-09-04T19:53:19.745Z,4.95
2022-09-04T19:55:37.112Z,5.20
2022-09-04T20:00:44.501Z,4.43
2022-09-04T20:05:53.922Z,5.82
2022-09-04T20:11:02.805Z,5.80
2022-09-04T20:16:09.737Z,6.05
2022-09-04T20:21:17.937Z,5.45
2022-09-04T20:26:22.182Z,7.75
2022-09-04T20:31:40.149Z,7.78
2022-09-04T20:36:49.422Z,6.90
2022-09-04T20:41:55.502Z,7.13
2022-09-04T20:52:45.158Z,5.50
2022-09-04T20:52:50.064Z,6.78
2022-09-04T21:03:06.136Z,6.53
2022-09-04T21:03:34.245Z,6.88
2022-09-04T21:08:41.902Z,7.43
2022-09-04T21:13:46.798Z,6.75
2022-09-04T21:19:14.337Z,9.25
2022-09-04T21:24:28.239Z,7.07
2022-09-04T21:29:45.606Z,7.10
2022-09-04T21:34:55.480Z,7.30
2022-09-04T21:40:21.604Z,9.45
2022-09-04T21:45:35.101Z,7.95
2022-09-04T21:51:04.710Z,7.75
2022-09-04T22:02:11.061Z,9.93
2022-09-04T22:02:36.083Z,9.27
2022-09-04T22:12:07.728Z,8.80
2022-09-04T22:13:43.864Z,9.93
2022-09-04T22:18:10.399Z,9.95
2022-09-04T22:23:27.086Z,9.90
2022-09-04T22:28:46.435Z,9.05
2022-09-04T22:34:15.283Z,9.48
2022-09-04T22:39:31.833Z,10.75
2022-09-04T22:44:40.247Z,9.82
2022-09-04T22:49:55.464Z,10.10
2022-09-04T22:55:17.797Z,12.13
2022-09-04T23:00:28.626Z,10.70
2022-09-04T23:05:37.396Z,10.18
2022-09-04T23:13:47.120Z,10.77
2022-09-04T23:16:24.921Z,11.20
2022-09-04T23:26:36.372Z,10.90
2022-09-04T23:27:12.649Z,11.82
2022-09-04T23:32:58.805Z,11.65
2022-09-04T23:38:08.958Z,11.25
2022-09-04T23:43:26.377Z,12.73
2022-09-04T23:48:35.210Z,11.68
2022-09-04T23:53:42.961Z,12.25
2022-09-04T23:59:11.012Z,13.02
